Time;durP1;ratioP1;P1;durP2;ratioP2;P2;SDS_P1;SDS_P2;PMS_P1;PMS_P2;Temp;Humidity;BMP_temperature;BMP_pressure;BME280_temperature;BME280_humidity;BME280_pressure;Samples;Min_cycle;Max_cycle;Signal;HPM_P1;HPM_P2
2022/11/12 00:00:06;;;;;;;24.77;15.32;;;8.90;99.90;;;;;;6189911;23;20008;-82
2022/11/12 00:02:32;;;;;;;19.73;13.73;;;8.80;99.90;;;;;;6214830;23;20013;-83
2022/11/12 00:04:58;;;;;;;22.23;13.65;;;8.80;99.90;;;;;;6165219;23;20451;-87
2022/11/12 00:07:23;;;;;;;21.15;14.25;;;8.80;99.90;;;;;;6214867;23;20005;-86
2022/11/12 00:09:49;;;;;;;24.83;14.30;;;8.80;99.90;;;;;;6189713;23;20008;-86
2022/11/12 00:12:14;;;;;;;23.23;13.77;;;8.80;99.90;;;;;;6190032;23;20394;-86
2022/11/12 00:14:40;;;;;;;23.73;13.98;;;8.70;99.90;;;;;;6189819;23;20339;-87
2022/11/12 00:17:06;;;;;;;21.80;13.65;;;8.70;99.90;;;;;;6165126;23;20011;-86
2022/11/12 00:19:31;;;;;;;21.92;14.90;;;8.70;99.90;;;;;;6165164;23;20009;-86
2022/11/12 00:21:57;;;;;;;22.80;13.82;;;8.70;99.90;;;;;;6191486;23;20011;-81
2022/11/12 00:24:23;;;;;;;20.10;13.63;;;8.60;99.90;;;;;;6166215;23;20008;-81
2022/11/12 00:26:48;;;;;;;20.05;13.00;;;8.60;99.90;;;;;;6193628;23;20410;-81
2022/11/12 00:29:14;;;;;;;21.70;12.82;;;8.60;99.90;;;;;;6220709;23;20451;-81
2022/11/12 00:31:39;;;;;;;21.33;12.68;;;8.60;99.90;;;;;;6194319;23;20008;-81
2022/11/12 00:34:05;;;;;;;18.88;12.50;;;8.50;99.90;;;;;;6193649;23;20004;-81
2022/11/12 00:36:31;;;;;;;17.17;11.43;;;8.50;99.90;;;;;;6192425;23;20076;-82
2022/11/12 00:38:56;;;;;;;19.00;11.50;;;8.50;99.90;;;;;;6164750;23;20019;-83
2022/11/12 00:41:22;;;;;;;20.50;11.98;;;8.50;99.90;;;;;;6214702;23;20009;-83
2022/11/12 00:43:48;;;;;;;17.48;11.63;;;8.50;99.90;;;;;;6216595;23;20032;-83
2022/11/12 00:46:13;;;;;;;17.42;11.25;;;8.40;99.90;;;;;;6214659;23;20005;-83
2022/11/12 00:48:40;;;;;;;17.23;10.95;;;8.40;99.90;;;;;;6165071;23;20027;-83
2022/11/12 00:51:06;;;;;;;19.73;11.60;;;8.40;99.90;;;;;;6215085;23;20001;-83
2022/11/12 00:53:32;;;;;;;17.13;10.60;;;8.40;99.90;;;;;;6191994;23;20005;-86
2022/11/12 00:56:05;;;;;;;17.20;10.50;;;8.30;99.90;;;;;;6174974;23;20102;-87
2022/11/12 00:58:33;;;;;;;16.35;10.90;;;8.30;99.90;;;;;;6223703;23;20487;-86
2022/11/12 01:01:10;;;;;;;17.35;11.35;;;8.30;99.90;;;;;;6223902;23;20009;-87
2022/11/12 01:03:37;;;;;;;17.27;9.85;;;8.30;99.90;;;;;;6220552;23;20054;-86
2022/11/12 01:06:08;;;;;;;17.63;10.82;;;8.30;99.90;;;;;;6218729;23;20328;-86
2022/11/12 01:08:34;;;;;;;16.05;10.75;;;8.20;99.90;;;;;;6215589;23;19997;-86
2022/11/12 01:11:12;;;;;;;16.48;10.35;;;8.20;99.90;;;;;;6189693;23;20050;-83
2022/11/12 01:13:39;;;;;;;20.05;9.52;;;8.20;99.90;;;;;;6216026;23;20403;-83
2022/11/12 01:16:07;;;;;;;14.45;10.00;;;8.20;99.90;;;;;;6214322;23;20297;-83
2022/11/12 01:18:33;;;;;;;17.08;10.02;;;8.20;99.90;;;;;;6215761;23;19997;-83
2022/11/12 01:21:03;;;;;;;15.38;9.48;;;8.20;99.90;;;;;;6214241;23;20025;-83
2022/11/12 01:23:32;;;;;;;15.20;9.38;;;8.10;99.90;;;;;;6215169;23;20008;-83
2022/11/12 01:25:57;;;;;;;17.73;10.90;;;8.10;99.90;;;;;;6216223;23;20001;-83
2022/11/12 01:28:23;;;;;;;19.17;10.32;;;8.10;99.90;;;;;;6218302;23;20401;-83
2022/11/12 01:30:49;;;;;;;16.13;10.27;;;8.10;99.90;;;;;;6216730;23;20017;-83
2022/11/12 01:33:15;;;;;;;14.43;9.55;;;8.10;99.90;;;;;;6216699;23;20000;-83
2022/11/12 01:35:40;;;;;;;17.27;10.52;;;8.10;99.90;;;;;;6216578;23;20092;-83
2022/11/12 01:38:06;;;;;;;16.50;10.80;;;8.00;99.90;;;;;;6166749;23;20005;-83
2022/11/12 01:40:32;;;;;;;14.98;9.60;;;8.00;99.90;;;;;;6191384;23;20011;-82
2022/11/12 01:42:58;;;;;;;16.40;10.10;;;8.00;99.90;;;;;;6191811;23;20310;-83
2022/11/12 01:45:23;;;;;;;17.08;10.55;;;8.00;99.90;;;;;;6191509;23;20032;-83
2022/11/12 01:47:50;;;;;;;13.30;8.75;;;8.00;99.90;;;;;;6191418;23;20075;-83
2022/11/12 01:50:19;;;;;;;16.98;9.85;;;8.00;99.90;;;;;;6216499;23;20005;-83
2022/11/12 01:52:46;;;;;;;17.48;10.20;;;8.00;99.90;;;;;;6216713;23;20004;-83
2022/11/12 01:55:18;;;;;;;14.88;9.13;;;8.00;99.90;;;;;;6216302;23;20000;-85
2022/11/12 01:58:12;;;;;;;17.75;9.70;;;7.90;99.90;;;;;;6218023;23;20004;-86
2022/11/12 02:00:39;;;;;;;13.80;9.93;;;7.90;99.90;;;;;;6216391;23;20012;-81
2022/11/12 02:03:11;;;;;;;16.30;9.95;;;7.90;99.90;;;;;;6191167;23;20008;-81
2022/11/12 02:05:38;;;;;;;13.73;9.30;;;7.90;99.90;;;;;;6215961;23;20440;-81
2022/11/12 02:08:06;;;;;;;15.27;9.40;;;7.90;99.90;;;;;;6217619;23;19996;-81
2022/11/12 02:10:34;;;;;;;13.63;9.27;;;7.80;99.90;;;;;;6217292;23;20059;-81
2022/11/12 02:15:44;;;;;;;15.48;9.00;;;7.80;99.90;;;;;;6218183;23;20019;-81
2022/11/12 02:18:31;;;;;;;17.88;9.40;;;7.80;99.90;;;;;;6216121;23;20092;-83
2022/11/12 02:21:04;;;;;;;14.75;10.02;;;7.70;99.90;;;;;;6191473;23;20040;-84
2022/11/12 02:23:31;;;;;;;15.63;9.68;;;7.70;99.90;;;;;;6215923;23;20088;-82
2022/11/12 02:25:59;;;;;;;15.85;9.95;;;7.70;99.90;;;;;;6191027;23;20420;-82
2022/11/12 02:28:26;;;;;;;14.75;9.02;;;7.70;99.90;;;;;;6216187;23;20051;-82
2022/11/12 02:31:20;;;;;;;14.30;8.50;;;7.70;99.90;;;;;;6216031;23;20371;-84
2022/11/12 02:33:49;;;;;;;13.27;8.73;;;7.60;99.90;;;;;;6191147;23;20059;-87
2022/11/12 02:36:25;;;;;;;18.48;9.70;;;7.60;99.90;;;;;;6189586;23;20004;-87
2022/11/12 02:38:56;;;;;;;18.55;9.65;;;7.60;99.90;;;;;;6191827;23;20416;-88
2022/11/12 02:41:22;;;;;;;13.73;8.98;;;7.60;99.90;;;;;;6216152;23;20004;-85
2022/11/12 02:43:48;;;;;;;17.00;9.05;;;7.50;99.90;;;;;;6215831;23;20078;-87
2022/11/12 02:46:14;;;;;;;15.52;9.07;;;7.50;99.90;;;;;;6215913;23;20004;-85
2022/11/12 02:48:40;;;;;;;13.75;8.93;;;7.50;99.90;;;;;;6190916;23;20083;-84
2022/11/12 02:51:06;;;;;;;14.57;9.30;;;7.50;99.90;;;;;;6216269;23;20035;-82
2022/11/12 02:53:32;;;;;;;20.63;9.20;;;7.50;99.90;;;;;;6191438;23;20412;-82
2022/11/12 02:55:59;;;;;;;14.20;9.48;;;7.50;99.90;;;;;;6191455;23;20016;-82
2022/11/12 02:58:25;;;;;;;12.90;8.77;;;7.50;99.90;;;;;;6216339;23;20062;-82
2022/11/12 03:00:51;;;;;;;13.10;9.10;;;7.40;99.90;;;;;;6191183;23;20370;-82
2022/11/12 03:03:16;;;;;;;16.05;9.05;;;7.40;99.90;;;;;;6216068;23;20011;-83
2022/11/12 03:05:44;;;;;;;12.48;9.02;;;7.40;99.90;;;;;;6190928;23;20032;-83
2022/11/12 03:08:09;;;;;;;14.20;8.70;;;7.40;99.90;;;;;;6228750;23;20419;-84
2022/11/12 03:10:39;;;;;;;15.23;9.15;;;7.40;99.90;;;;;;6191385;23;20017;-83
2022/11/12 03:13:05;;;;;;;14.57;9.32;;;7.40;99.90;;;;;;6191542;23;20452;-83
2022/11/12 03:15:31;;;;;;;16.02;9.40;;;7.40;99.90;;;;;;6222917;23;20017;-83
2022/11/12 03:17:57;;;;;;;14.05;8.75;;;7.40;99.90;;;;;;6217464;23;20012;-83
2022/11/12 03:20:24;;;;;;;12.70;9.35;;;7.40;99.90;;;;;;6215782;23;20066;-83
2022/11/12 03:23:01;;;;;;;12.52;8.52;;;7.30;99.90;;;;;;6190965;23;20484;-83
2022/11/12 03:25:27;;;;;;;15.73;8.80;;;7.30;99.90;;;;;;6218884;23;20004;-86
2022/11/12 03:28:07;;;;;;;14.18;8.32;;;7.30;99.90;;;;;;6190561;23;20009;-86
2022/11/12 03:30:35;;;;;;;16.20;8.90;;;7.30;99.90;;;;;;6217592;23;20004;-86
2022/11/12 03:33:02;;;;;;;13.02;8.73;;;7.30;99.90;;;;;;6216055;23;20036;-83
2022/11/12 03:35:27;;;;;;;15.07;9.45;;;7.30;99.90;;;;;;6190519;23;20008;-83
2022/11/12 03:37:53;;;;;;;13.45;8.65;;;7.20;99.90;;;;;;6190292;23;20344;-83
2022/11/12 03:40:19;;;;;;;12.60;8.27;;;7.30;99.90;;;;;;6215539;23;20008;-85
2022/11/12 03:42:47;;;;;;;12.43;8.48;;;7.20;99.90;;;;;;6215703;23;20004;-85
2022/11/12 03:45:13;;;;;;;15.27;8.85;;;7.20;99.90;;;;;;6217391;23;20004;-85
2022/11/12 03:47:43;;;;;;;17.13;8.00;;;7.20;99.90;;;;;;6190232;23;20490;-85
2022/11/12 03:50:10;;;;;;;15.13;8.70;;;7.20;99.90;;;;;;6215316;23;20005;-85
2022/11/12 03:52:37;;;;;;;12.10;8.13;;;7.10;99.90;;;;;;6190463;23;20425;-86
2022/11/12 03:55:03;;;;;;;12.70;8.25;;;7.10;99.90;;;;;;6217013;23;20011;-86
2022/11/12 03:57:29;;;;;;;16.80;8.93;;;7.10;99.90;;;;;;6190419;23;20012;-86
2022/11/12 03:59:55;;;;;;;15.55;8.45;;;7.10;99.90;;;;;;6215736;23;20035;-85
2022/11/12 04:02:29;;;;;;;12.55;8.50;;;7.10;99.90;;;;;;6190523;23;20055;-86
2022/11/12 04:10:28;;;;;;;14.05;8.27;;;7.00;99.90;;;;;;6215689;23;20031;-83
2022/11/12 04:15:38;;;;;;;11.70;8.23;;;7.00;99.90;;;;;;6218059;23;20047;-82
2022/11/12 04:26:35;;;;;;;14.10;7.65;;;6.90;99.90;;;;;;6223391;23;20021;-87
2022/11/12 04:31:57;;;;;;;17.23;9.60;;;6.90;99.90;;;;;;6197149;23;20463;-88
2022/11/12 04:34:43;;;;;;;13.77;8.35;;;6.90;99.90;;;;;;6164699;23;20016;-88
2022/11/12 04:37:09;;;;;;;14.55;9.10;;;6.90;99.90;;;;;;6188325;23;20011;-86
2022/11/12 04:44:58;;;;;;;13.20;9.05;;;6.90;99.90;;;;;;6165116;23;20352;-87
2022/11/12 04:46:09;;;;;;;16.70;9.65;;;6.80;99.90;;;;;;6187079;23;20024;-87
2022/11/12 04:48:40;;;;;;;12.48;8.70;;;6.80;99.90;;;;;;6177809;23;20065;-89
2022/11/12 04:54:24;;;;;;;14.70;8.85;;;6.80;99.90;;;;;;6185211;23;20502;-87
2022/11/12 04:57:08;;;;;;;17.77;8.65;;;6.80;99.90;;;;;;6160085;23;20013;-87
2022/11/12 04:59:34;;;;;;;14.52;8.63;;;6.80;99.90;;;;;;6160146;23;20005;-88
2022/11/12 05:02:41;;;;;;;13.75;8.57;;;6.80;99.90;;;;;;6136834;23;20019;-87
2022/11/12 05:05:37;;;;;;;14.80;9.05;;;6.80;99.90;;;;;;6163075;23;20005;-86
2022/11/12 05:08:02;;;;;;;16.23;9.13;;;6.80;99.90;;;;;;6138108;23;20306;-87
2022/11/12 05:10:32;;;;;;;15.35;9.23;;;6.70;99.90;;;;;;6138745;23;20100;-87
2022/11/12 05:13:13;;;;;;;14.07;8.88;;;6.70;99.90;;;;;;6168308;23;20005;-87
2022/11/12 05:18:58;;;;;;;14.20;8.43;;;6.70;99.90;;;;;;6219268;23;20104;-88
2022/11/12 05:24:27;;;;;;;13.87;8.63;;;6.70;99.90;;;;;;6195021;23;20020;-89
2022/11/12 05:26:53;;;;;;;12.40;7.75;;;6.70;99.90;;;;;;6159744;23;20020;-88
2022/11/12 05:29:38;;;;;;;13.52;8.77;;;6.60;99.90;;;;;;6159644;23;20010;-88
2022/11/12 05:32:12;;;;;;;14.50;9.00;;;6.60;99.90;;;;;;6184269;23;19997;-88
2022/11/12 05:34:52;;;;;;;14.80;8.95;;;6.60;99.90;;;;;;6186337;23;20001;-89
2022/11/12 05:37:18;;;;;;;13.30;8.82;;;6.60;99.90;;;;;;6193920;23;20056;-90
2022/11/12 05:39:57;;;;;;;12.82;8.02;;;6.60;99.90;;;;;;6173911;23;20008;-91
2022/11/12 05:42:23;;;;;;;14.63;8.40;;;6.60;99.90;;;;;;6187853;23;20033;-88
2022/11/12 05:44:49;;;;;;;15.27;8.88;;;6.60;99.90;;;;;;6135012;23;20445;-87
2022/11/12 05:47:21;;;;;;;12.32;8.25;;;6.60;99.90;;;;;;6135276;23;20009;-88
2022/11/12 05:49:52;;;;;;;11.95;8.07;;;6.60;99.90;;;;;;6184756;23;20031;-88
2022/11/12 05:52:37;;;;;;;13.20;8.82;;;6.50;99.90;;;;;;6183931;23;20002;-88
2022/11/12 05:55:22;;;;;;;12.48;9.07;;;6.50;99.90;;;;;;6194610;23;20059;-88
2022/11/12 05:58:08;;;;;;;13.98;7.68;;;6.50;99.90;;;;;;6159248;23;20013;-88
2022/11/12 06:00:58;;;;;;;12.80;7.63;;;6.50;99.90;;;;;;6184571;23;20013;-88
2022/11/12 06:03:45;;;;;;;13.73;8.30;;;6.50;99.90;;;;;;6156695;23;20088;-88
2022/11/12 06:06:10;;;;;;;15.40;8.75;;;6.50;99.90;;;;;;6159720;23;20376;-88
2022/11/12 06:08:48;;;;;;;14.57;7.78;;;6.40;99.90;;;;;;6160100;23;20217;-88
2022/11/12 06:11:19;;;;;;;14.82;8.25;;;6.40;99.90;;;;;;6193607;23;20005;-87
2022/11/12 06:13:45;;;;;;;11.70;8.43;;;6.40;99.90;;;;;;6178965;23;20101;-87
2022/11/12 06:16:12;;;;;;;12.85;9.07;;;6.40;99.90;;;;;;6179574;23;20001;-86
2022/11/12 06:18:38;;;;;;;13.57;8.38;;;6.40;99.90;;;;;;6153571;23;20001;-86
2022/11/12 06:21:22;;;;;;;12.60;8.40;;;6.40;99.90;;;;;;6177961;23;20044;-87
2022/11/12 06:24:14;;;;;;;12.55;8.55;;;6.40;99.90;;;;;;6164411;23;20058;-89
2022/11/12 06:26:45;;;;;;;12.82;8.70;;;6.40;99.90;;;;;;6116318;23;1173126;-87
2022/11/12 06:29:18;;;;;;;15.63;8.80;;;6.40;99.90;;;;;;6130495;23;20044;-87
2022/11/12 06:31:43;;;;;;;15.02;8.35;;;6.40;99.90;;;;;;6138033;23;20001;-86
2022/11/12 06:34:11;;;;;;;15.45;8.50;;;6.30;99.90;;;;;;6137369;23;20023;-87
2022/11/12 06:36:47;;;;;;;13.82;7.63;;;6.30;99.90;;;;;;6162132;23;20071;-87
2022/11/12 06:39:26;;;;;;;11.18;8.07;;;6.30;99.90;;;;;;6115786;23;20421;-88
2022/11/12 06:42:01;;;;;;;14.40;7.90;;;6.30;99.90;;;;;;6161100;23;20005;-88
2022/11/12 06:44:36;;;;;;;12.75;7.55;;;6.30;99.90;;;;;;6163074;23;20454;-87
2022/11/12 06:47:39;;;;;;;14.13;8.48;;;6.30;99.90;;;;;;6193084;23;20008;-87
2022/11/12 06:50:21;;;;;;;10.55;7.28;;;6.30;99.90;;;;;;6197840;23;20004;-87
2022/11/12 06:53:07;;;;;;;;;;;6.30;99.90;;;;;;6184374;23;20001;-87
2022/11/12 06:56:01;;;;;;;13.73;7.43;;;6.30;99.90;;;;;;6187968;23;20303;-89
2022/11/12 06:58:40;;;;;;;10.88;7.78;;;6.30;99.90;;;;;;6170842;23;20005;-87
2022/11/12 07:01:19;;;;;;;14.32;7.60;;;6.20;99.90;;;;;;6137392;23;20005;-89
2022/11/12 07:03:44;;;;;;;11.68;7.30;;;6.30;99.90;;;;;;6162135;23;20001;-90
2022/11/12 07:06:27;;;;;;;12.40;8.50;;;6.30;99.90;;;;;;6140220;23;20400;-88
2022/11/12 07:09:15;;;;;;;16.30;7.00;;;6.20;99.90;;;;;;6161725;23;20001;-88
2022/11/12 07:15:37;;;;;;;12.70;8.07;;;6.20;99.90;;;;;;6162544;23;20015;-87
2022/11/12 07:18:10;;;;;;;11.82;7.95;;;6.20;99.90;;;;;;6164731;23;20060;-89
2022/11/12 07:20:48;;;;;;;14.98;8.32;;;6.20;99.90;;;;;;6172112;23;19997;-88
2022/11/12 07:23:16;;;;;;;14.93;8.93;;;6.20;99.90;;;;;;6165408;23;20005;-91
2022/11/12 07:26:20;;;;;;;14.95;8.93;;;6.20;99.90;;;;;;6145672;23;20028;-90
2022/11/12 07:28:51;;;;;;;13.25;8.75;;;6.30;99.90;;;;;;6189915;23;20459;-90
2022/11/12 07:31:30;;;;;;;13.40;8.52;;;6.20;99.90;;;;;;6190332;23;20001;-90
2022/11/12 07:34:02;;;;;;;11.75;8.10;;;6.30;99.90;;;;;;6192231;23;20008;-91
2022/11/12 07:36:27;;;;;;;;;;;6.30;99.90;;;;;;6142269;23;20009;-89
2022/11/12 07:38:55;;;;;;;13.15;7.70;;;6.30;99.90;;;;;;6186431;23;20015;-88
2022/11/12 07:41:42;;;;;;;12.13;8.02;;;6.30;99.90;;;;;;6111783;23;20012;-88
2022/11/12 07:44:21;;;;;;;10.75;7.72;;;6.30;99.90;;;;;;6161874;23;20012;-88
2022/11/12 07:47:14;;;;;;;10.65;7.22;;;6.30;99.90;;;;;;6187344;23;19997;-89
2022/11/12 07:49:40;;;;;;;11.52;7.97;;;6.30;99.90;;;;;;6189553;23;20005;-90
2022/11/12 07:52:15;;;;;;;17.90;9.45;;;6.30;99.90;;;;;;6139914;23;20016;-88
2022/11/12 07:54:57;;;;;;;14.75;8.18;;;6.30;99.90;;;;;;6187291;23;20005;-88
2022/11/12 07:57:24;;;;;;;11.20;7.55;;;6.40;99.90;;;;;;6186336;23;20016;-90
2022/11/12 08:00:03;;;;;;;14.13;8.23;;;6.40;99.90;;;;;;6137601;23;20032;-90
2022/11/12 08:02:30;;;;;;;14.27;8.25;;;6.40;99.90;;;;;;6186939;23;20448;-90
2022/11/12 08:05:28;;;;;;;12.82;7.88;;;6.40;99.90;;;;;;6186478;23;20005;-89
2022/11/12 08:08:00;;;;;;;12.45;7.78;;;6.50;99.90;;;;;;6188103;23;20008;-91
2022/11/12 08:10:26;;;;;;;11.70;6.95;;;6.50;99.90;;;;;;6162552;23;20001;-90
2022/11/12 08:13:22;;;;;;;10.90;7.75;;;6.50;99.90;;;;;;6178096;23;20428;-89
2022/11/12 08:15:48;;;;;;;11.75;6.78;;;6.60;99.90;;;;;;6187773;23;20092;-88
2022/11/12 08:18:35;;;;;;;13.05;7.57;;;6.60;99.90;;;;;;6163213;23;20013;-88
2022/11/12 08:21:12;;;;;;;11.85;7.45;;;6.60;99.90;;;;;;6161313;23;20162;-88
2022/11/12 08:24:20;;;;;;;11.43;7.22;;;6.60;99.90;;;;;;6185081;23;20032;-87
2022/11/12 08:27:05;;;;;;;12.25;7.50;;;6.70;99.90;;;;;;6070960;23;20320;-87
2022/11/12 08:29:31;;;;;;;12.15;6.60;;;6.70;99.90;;;;;;6025182;23;20010;-87
2022/11/12 08:31:59;;;;;;;10.85;7.07;;;6.80;99.90;;;;;;6047797;23;20319;-88
2022/11/12 08:34:54;;;;;;;10.70;7.40;;;6.80;99.90;;;;;;6072708;23;20017;-88
2022/11/12 08:37:22;;;;;;;11.77;7.45;;;6.80;99.90;;;;;;6074224;23;20453;-87
2022/11/12 08:43:14;;;;;;;12.27;8.02;;;7.00;99.90;;;;;;6096989;23;20050;-88
2022/11/12 08:49:20;;;;;;;13.07;7.60;;;7.10;99.90;;;;;;6103140;23;20009;-88
2022/11/12 08:55:54;;;;;;;11.55;7.20;;;7.20;99.90;;;;;;6187064;23;20012;-88
2022/11/12 09:04:31;;;;;;;11.57;7.47;;;7.40;99.90;;;;;;6186847;23;20085;-88
2022/11/12 09:10:27;;;;;;;10.52;7.68;;;7.50;99.90;;;;;;6187532;23;20008;-89
2022/11/12 09:12:56;;;;;;;12.52;7.53;;;7.60;99.90;;;;;;6160970;23;20393;-88
2022/11/12 09:18:58;;;;;;;13.40;8.05;;;7.70;99.90;;;;;;6097026;23;20098;-88
2022/11/12 09:21:23;;;;;;;12.20;7.55;;;7.80;99.90;;;;;;6072517;23;20041;-89
2022/11/12 09:23:52;;;;;;;12.25;6.95;;;7.80;99.90;;;;;;6048513;23;20010;-89
2022/11/12 09:27:07;;;;;;;15.50;8.30;;;7.90;99.90;;;;;;6046552;23;20117;-88
2022/11/12 09:29:33;;;;;;;12.77;8.00;;;8.00;99.90;;;;;;6070867;23;20025;-89
2022/11/12 09:32:07;;;;;;;12.13;7.82;;;8.00;99.90;;;;;;6025328;23;20018;-89
2022/11/12 09:34:42;;;;;;;13.10;7.82;;;8.10;99.90;;;;;;6026399;23;20450;-89
2022/11/12 09:40:41;;;;;;;10.10;7.32;;;8.20;99.90;;;;;;6103315;23;20025;-90
2022/11/12 09:47:06;;;;;;;10.57;7.57;;;8.30;99.90;;;;;;6073631;23;20155;-91
2022/11/12 09:50:03;;;;;;;13.75;7.90;;;8.40;99.90;;;;;;6049616;23;20043;-91
2022/11/12 09:52:29;;;;;;;13.95;7.97;;;8.50;99.90;;;;;;6073655;23;20010;-91
2022/11/12 09:55:17;;;;;;;11.80;7.32;;;8.50;99.90;;;;;;6063147;23;20017;-92
2022/11/12 09:57:52;;;;;;;14.15;8.10;;;8.60;99.90;;;;;;6195482;23;20008;-92
2022/11/12 10:00:28;;;;;;;13.02;8.70;;;8.70;99.90;;;;;;6197099;23;20500;-92
2022/11/12 10:03:48;;;;;;;13.75;8.15;;;8.70;99.90;;;;;;6197468;23;20059;-90
2022/11/12 10:06:39;;;;;;;11.70;7.78;;;8.80;99.90;;;;;;6215966;23;20009;-89
2022/11/12 10:12:41;;;;;;;11.32;7.38;;;9.00;99.90;;;;;;6192618;23;20015;-89
2022/11/12 10:18:45;;;;;;;10.68;8.00;;;9.10;99.90;;;;;;6218699;23;20096;-89
2022/11/12 10:24:38;;;;;;;12.32;8.05;;;9.30;99.90;;;;;;6213139;23;20077;-85
2022/11/12 10:27:33;;;;;;;12.00;8.02;;;9.40;99.90;;;;;;6190974;23;19996;-86
2022/11/12 10:30:09;;;;;;;11.18;8.40;;;9.50;99.90;;;;;;6191616;23;20530;-85
2022/11/12 10:32:36;;;;;;;11.25;7.53;;;9.50;99.90;;;;;;6191198;23;20007;-85
2022/11/12 10:35:02;;;;;;;12.35;8.27;;;9.60;99.90;;;;;;6166297;23;20424;-86
2022/11/12 10:37:52;;;;;;;11.30;7.97;;;9.70;99.90;;;;;;6191219;23;20015;-85
2022/11/12 10:40:23;;;;;;;11.18;7.82;;;9.70;99.90;;;;;;6190672;23;20015;-86
2022/11/12 10:43:22;;;;;;;11.52;7.93;;;9.90;99.90;;;;;;6216018;23;20008;-86
2022/11/12 10:45:49;;;;;;;11.40;7.35;;;9.90;99.90;;;;;;6112098;23;20019;-86
2022/11/12 10:48:32;;;;;;;10.57;7.88;;;10.00;99.90;;;;;;6190799;23;20047;-86
2022/11/12 10:50:58;;;;;;;9.98;7.20;;;10.10;99.90;;;;;;6190157;23;20032;-87
2022/11/12 10:53:45;;;;;;;10.45;8.02;;;10.20;99.90;;;;;;6166260;23;20092;-89
2022/11/12 10:56:32;;;;;;;12.68;7.72;;;10.30;99.90;;;;;;6166583;23;20005;-88
2022/11/12 10:59:09;;;;;;;10.73;7.32;;;10.40;99.90;;;;;;6191585;23;20087;-89
2022/11/12 11:01:34;;;;;;;11.80;7.93;;;10.50;99.90;;;;;;6216537;23;20438;-89
2022/11/12 11:04:00;;;;;;;11.48;7.65;;;10.50;99.90;;;;;;6166759;23;20040;-90
2022/11/12 11:06:26;;;;;;;12.10;8.60;;;10.60;99.90;;;;;;6191315;23;20027;-89
2022/11/12 11:09:06;;;;;;;11.38;8.00;;;10.70;99.90;;;;;;6166776;23;20009;-88
2022/11/12 11:11:33;;;;;;;12.68;7.97;;;10.80;99.90;;;;;;6190871;23;20087;-86
2022/11/12 11:14:24;;;;;;;11.38;8.43;;;10.90;99.90;;;;;;6166493;23;20000;-87
2022/11/12 11:17:03;;;;;;;13.48;8.55;;;11.00;99.90;;;;;;6190866;23;20000;-86
2022/11/12 11:19:37;;;;;;;17.25;8.80;;;11.10;99.90;;;;;;6195589;23;20001;-85
2022/11/12 11:22:42;;;;;;;10.75;7.88;;;11.20;99.90;;;;;;6195657;23;20000;-87
2022/11/12 11:25:22;;;;;;;12.32;7.60;;;11.30;99.90;;;;;;6190361;23;20080;-85
2022/11/12 11:28:23;;;;;;;10.80;8.13;;;11.40;99.90;;;;;;6189194;23;19997;-85
2022/11/12 11:31:19;;;;;;;9.57;7.40;;;11.50;99.90;;;;;;6170538;23;20062;-84
2022/11/12 11:33:59;;;;;;;11.63;7.85;;;11.60;99.90;;;;;;6190344;23;20008;-85
2022/11/12 11:36:34;;;;;;;10.98;8.20;;;11.60;99.90;;;;;;6190340;23;20016;-86
2022/11/12 11:40:01;;;;;;;14.13;8.70;;;11.70;99.90;;;;;;6214660;23;20004;-85
2022/11/12 11:43:00;;;;;;;9.05;7.20;;;11.80;99.90;;;;;;6129120;23;20001;-84
2022/11/12 11:45:55;;;;;;;10.93;7.82;;;11.90;99.90;;;;;;6190625;23;20008;-86
2022/11/12 11:49:06;;;;;;;13.52;8.55;;;12.00;99.90;;;;;;6189993;23;20011;-86
2022/11/12 11:51:53;;;;;;;10.43;8.48;;;12.10;99.90;;;;;;6042685;23;20003;-86
2022/11/12 11:54:57;;;;;;;10.68;8.32;;;12.20;99.90;;;;;;6190460;23;20005;-88
2022/11/12 11:57:28;;;;;;;13.18;7.75;;;12.30;99.90;;;;;;6190823;23;20005;-87
2022/11/12 12:00:09;;;;;;;10.43;7.75;;;12.40;99.90;;;;;;6216785;23;20008;-85
2022/11/12 12:03:11;;;;;;;12.18;7.97;;;12.40;99.90;;;;;;6215663;23;20059;-86
2022/11/12 12:06:01;;;;;;;9.93;7.43;;;12.50;99.90;;;;;;6212108;23;20016;-84
2022/11/12 12:08:29;;;;;;;12.75;8.40;;;12.60;99.90;;;;;;6215065;23;20031;-83
2022/11/12 12:11:01;;;;;;;12.25;8.30;;;12.70;99.90;;;;;;6215316;23;20009;-84
2022/11/12 12:14:21;;;;;;;10.82;7.63;;;12.80;99.90;;;;;;6214948;23;20092;-84
2022/11/12 12:16:58;;;;;;;10.38;7.97;;;12.90;99.90;;;;;;6042780;23;20011;-87
2022/11/12 12:19:42;;;;;;;10.52;7.63;;;13.00;99.90;;;;;;6190010;23;20015;-87
2022/11/12 12:22:23;;;;;;;9.88;7.03;;;13.10;99.90;;;;;;6190143;23;20016;-87
2022/11/12 12:24:54;;;;;;;;;;;13.10;99.90;;;;;;6184862;23;20429;-87
2022/11/12 12:27:28;;;;;;;9.48;7.35;;;13.20;99.90;;;;;;6186715;23;20284;-87
2022/11/12 12:30:05;;;;;;;10.68;7.07;;;13.30;99.90;;;;;;6186123;23;20044;-86
2022/11/12 12:32:50;;;;;;;9.10;6.97;;;13.40;99.90;;;;;;6184883;23;20005;-87
2022/11/12 12:35:33;;;;;;;28.95;9.07;;;13.40;99.90;;;;;;6184931;23;20333;-84
2022/11/12 12:38:35;;;;;;;134.05;15.82;;;13.50;99.90;;;;;;6186846;23;20001;-83
2022/11/12 12:44:07;;;;;;;12.10;7.38;;;13.70;99.90;;;;;;6186097;23;20412;-83
2022/11/12 12:46:41;;;;;;;10.18;7.10;;;13.80;99.90;;;;;;6183554;23;20001;-83
2022/11/12 12:49:14;;;;;;;8.90;6.90;;;13.80;99.90;;;;;;6185347;23;19997;-84
2022/11/12 12:51:40;;;;;;;11.68;7.38;;;13.90;99.90;;;;;;6184687;23;20001;-83
2022/11/12 12:54:51;;;;;;;10.82;7.53;;;14.00;99.90;;;;;;6184998;23;20004;-84
2022/11/12 12:57:26;;;;;;;;;;;14.10;99.90;;;;;;6184001;23;20083;-83
2022/11/12 13:00:30;;;;;;;8.68;5.88;;;14.10;99.90;;;;;;6185564;23;19900;-82
2022/11/12 13:02:56;;;;;;;10.27;7.38;;;14.20;99.90;;;;;;6159282;23;20013;-83
2022/11/12 13:05:31;;;;;;;9.10;6.55;;;14.20;99.90;;;;;;6182709;23;20314;-83
2022/11/12 13:08:10;;;;;;;24.45;8.77;;;14.30;99.90;;;;;;6185523;23;20027;-86
2022/11/12 13:10:40;;;;;;;11.25;7.25;;;14.40;99.90;;;;;;6184587;23;19997;-85
2022/11/12 13:13:18;;;;;;;10.27;7.25;;;14.50;99.90;;;;;;6183518;23;20024;-85
2022/11/12 13:15:52;;;;;;;8.88;6.63;;;14.60;99.90;;;;;;6183757;23;20009;-85
2022/11/12 13:18:36;;;;;;;10.55;7.72;;;14.70;99.90;;;;;;6185887;23;20487;-86
2022/11/12 13:21:29;;;;;;;9.95;7.00;;;14.80;99.90;;;;;;6186615;23;20012;-85
2022/11/12 13:24:06;;;;;;;8.88;6.60;;;14.90;99.90;;;;;;6181883;23;20036;-83
2022/11/12 13:26:53;;;;;;;8.60;6.50;;;15.00;99.90;;;;;;6185257;23;20314;-82
2022/11/12 13:29:28;;;;;;;9.82;6.63;;;15.10;99.90;;;;;;6184000;23;20009;-84
2022/11/12 13:32:32;;;;;;;10.32;6.47;;;15.20;99.90;;;;;;6184692;23;20001;-83
2022/11/12 13:35:10;;;;;;;8.85;6.18;;;15.20;99.90;;;;;;6186388;23;20009;-82
2022/11/12 13:38:11;;;;;;;10.48;6.70;;;15.30;99.90;;;;;;6186207;23;20039;-84
2022/11/12 13:40:40;;;;;;;;;;;15.30;99.90;;;;;;6186169;23;20509;-86
2022/11/12 13:43:11;;;;;;;9.30;6.35;;;15.40;99.90;;;;;;6187843;23;20271;-86
2022/11/12 13:46:18;;;;;;;10.13;6.25;;;15.40;99.90;;;;;;6186163;23;20071;-85
2022/11/12 13:49:11;;;;;;;8.05;6.10;;;15.40;99.90;;;;;;6188133;23;20032;-86
2022/11/12 13:51:47;;;;;;;9.30;5.90;;;15.40;99.90;;;;;;6189256;23;20005;-86
2022/11/12 13:54:39;;;;;;;7.75;5.60;;;15.50;99.90;;;;;;6187961;23;19997;-85
2022/11/12 13:57:22;;;;;;;8.32;5.15;;;15.50;99.90;;;;;;6207952;23;20059;-85
2022/11/12 13:59:58;;;;;;;8.48;5.28;;;15.50;99.90;;;;;;6187904;23;20028;-85
2022/11/12 14:02:25;;;;;;;6.95;5.13;;;15.50;99.90;;;;;;6187059;23;20009;-85
2022/11/12 14:04:52;;;;;;;7.82;5.25;;;15.50;99.90;;;;;;6185616;23;20012;-85
2022/11/12 14:07:52;;;;;;;9.98;6.07;;;15.50;99.90;;;;;;6187566;23;20071;-86
2022/11/12 14:10:24;;;;;;;10.07;6.65;;;15.60;99.90;;;;;;6186248;23;20036;-86
2022/11/12 14:13:01;;;;;;;8.20;5.80;;;15.50;99.90;;;;;;6187703;23;20051;-86
2022/11/12 14:15:51;;;;;;;10.65;6.65;;;15.60;99.90;;;;;;6186593;23;20339;-83
2022/11/12 14:18:28;;;;;;;9.83;5.83;;;15.60;99.90;;;;;;6188152;23;20008;-83
2022/11/12 14:20:54;;;;;;;8.40;5.43;;;15.60;99.90;;;;;;6187332;23;20057;-83
2022/11/12 14:23:21;;;;;;;9.80;5.45;;;15.60;99.90;;;;;;6185971;23;20013;-84
2022/11/12 14:25:50;;;;;;;9.82;5.70;;;15.60;99.90;;;;;;6185439;23;20009;-84
2022/11/12 14:28:33;;;;;;;9.93;6.03;;;15.60;99.90;;;;;;6186027;23;20051;-83
2022/11/12 14:31:00;;;;;;;8.18;5.50;;;15.60;99.90;;;;;;6186372;23;20001;-83
2022/11/12 14:33:28;;;;;;;7.28;5.28;;;15.60;99.90;;;;;;6186573;23;20002;-82
2022/11/12 14:36:04;;;;;;;7.50;5.22;;;15.60;99.90;;;;;;6188722;23;20005;-83
2022/11/12 14:38:35;;;;;;;7.35;4.88;;;15.60;99.90;;;;;;6187065;23;20009;-83
2022/11/12 14:41:23;;;;;;;10.18;5.40;;;15.60;99.90;;;;;;6185628;23;20005;-83
2022/11/12 14:43:51;;;;;;;6.95;4.78;;;15.60;99.90;;;;;;6184047;23;20005;-83
2022/11/12 14:46:25;;;;;;;6.38;4.72;;;15.60;99.90;;;;;;6183536;23;20328;-87
2022/11/12 14:49:04;;;;;;;7.75;4.82;;;15.60;99.90;;;;;;6184201;23;20310;-87
2022/11/12 14:51:35;;;;;;;10.85;5.32;;;15.60;99.90;;;;;;6185928;23;20001;-87